Map

Track Data

SID SEASON NUMBER BASIN SUBBASIN NAME ISO_TIME NATURE LAT LON WMO_WIND WMO_PRES WMO_AGENCY TRACK_TYPE DIST2LAND LANDFALL IFLAG USA_AGENCY USA_ATCF_ID USA_LAT USA_LON USA_RECORD USA_STATUS USA_WIND USA_PRES USA_SSHS USA_R34_NE USA_R34_SE USA_R34_SW USA_R34_NW USA_R50_NE USA_R50_SE USA_R50_SW USA_R50_NW USA_R64_NE USA_R64_SE USA_R64_SW USA_R64_NW USA_POCI USA_ROCI USA_RMW USA_EYE TOKYO_LAT TOKYO_LON TOKYO_GRADE TOKYO_WIND TOKYO_PRES TOKYO_R50_DIR TOKYO_R50_LONG TOKYO_R50_SHORT TOKYO_R30_DIR TOKYO_R30_LONG TOKYO_R30_SHORT TOKYO_LAND CMA_LAT CMA_LON CMA_CAT CMA_WIND CMA_PRES HKO_LAT HKO_LON HKO_CAT HKO_WIND HKO_PRES NEWDELHI_LAT NEWDELHI_LON NEWDELHI_GRADE NEWDELHI_WIND NEWDELHI_PRES NEWDELHI_CI NEWDELHI_DP NEWDELHI_POCI REUNION_LAT REUNION_LON REUNION_TYPE REUNION_WIND REUNION_PRES REUNION_TNUM REUNION_CI REUNION_RMW REUNION_R34_NE REUNION_R34_SE REUNION_R34_SW REUNION_R34_NW REUNION_R50_NE REUNION_R50_SE REUNION_R50_SW REUNION_R50_NW REUNION_R64_NE REUNION_R64_SE REUNION_R64_SW REUNION_R64_NW BOM_LAT BOM_LON BOM_TYPE BOM_WIND BOM_PRES BOM_TNUM BOM_CI BOM_RMW BOM_R34_NE BOM_R34_SE BOM_R34_SW BOM_R34_NW BOM_R50_NE BOM_R50_SE BOM_R50_SW BOM_R50_NW BOM_R64_NE BOM_R64_SE BOM_R64_SW BOM_R64_NW BOM_ROCI BOM_POCI BOM_EYE BOM_POS_METHOD BOM_PRES_METHOD NADI_LAT NADI_LON NADI_CAT NADI_WIND NADI_PRES WELLINGTON_LAT WELLINGTON_LON WELLINGTON_WIND WELLINGTON_PRES DS824_LAT DS824_LON DS824_STAGE DS824_WIND DS824_PRES TD9636_LAT TD9636_LON TD9636_STAGE TD9636_WIND TD9636_PRES TD9635_LAT TD9635_LON TD9635_WIND TD9635_PRES TD9635_ROCI NEUMANN_LAT NEUMANN_LON NEUMANN_CLASS NEUMANN_WIND NEUMANN_PRES MLC_LAT MLC_LON MLC_CLASS MLC_WIND MLC_PRES USA_GUST BOM_GUST BOM_GUST_PER REUNION_GUST REUNION_GUST_PER USA_SEAHGT USA_SEARAD_NE USA_SEARAD_SE USA_SEARAD_SW USA_SEARAD_NW STORM_SPEED STORM_DIR
2008290S05071 2009 81 SI MM ASMA 2008-10-15 18:00:00 TS -5.20000 70.5500 20 1006 reunion main 1654 1654 O____O________ jtwc_sh SH012009 -5.40000 70.4000 DB 20 1007 -3 -5.00000 70.7000 2 20 1006 1.00000 1.00000 9 4 226
2008290S05071 2009 81 SI MM ASMA 2008-10-15 21:00:00 TS -5.32999 70.4212 main 1677 1677 P____P________ SH012009 -5.51749 70.3200 DB 22 1005 -3 -5.14249 70.5225 2 21 1005 4 230
2008290S05071 2009 81 SI MM ASMA 2008-10-16 00:00:00 TS -5.45000 70.2500 22 1005 reunion main 1693 1708 O____O________ jtwc_sh SH012009 -5.60000 70.2000 TD 25 1004 -1 1008 150 30 -5.30000 70.3000 2 22 1005 1.50000 1.50000 9 5 242
2008290S05071 2009 81 SI MM ASMA 2008-10-16 03:00:00 TS -5.54751 70.0113 main 1723 1723 P____P________ SH012009 -5.62251 70.0150 TD 25 1004 -1 1007 170 30 -5.47252 70.0075 2 23 1004 5 253
2008290S05071 2009 81 SI MM ASMA 2008-10-16 06:00:00 TS -5.60000 69.7500 25 1004 reunion main 1746 1746 O____O________ jtwc_sh SH012009 -5.60000 69.8000 TD 25 1004 -1 1007 190 30 -5.60000 69.7000 2 25 1004 2.00000 2.00000 9 5 266
2008290S05071 2009 81 SI MM ASMA 2008-10-16 09:00:00 TS -5.58624 69.5137 main 1762 1762 P____P________ SH012009 -5.54249 69.6000 TD 27 1002 -1 1007 190 30 -5.62999 69.4275 2 25 1003 5 276
2008290S05071 2009 81 SI MM ASMA 2008-10-16 12:00:00 TS -5.55000 69.3000 25 1003 reunion main 1763 1763 O____O________ jtwc_sh SH012009 -5.50000 69.4000 TD 30 1000 -1 1007 190 30 -5.60000 69.2000 2 25 1003 2.00000 2.00000 9 4 280
2008290S05071 2009 81 SI MM ASMA 2008-10-16 15:00:00 TS -5.51625 69.1025 main 1775 1775 P____P________ SH012009 -5.52001 69.1850 TD 32 998 -1 1006 205 30 -5.51249 69.0200 2 25 1002 3 270
2008290S05071 2009 81 SI MM ASMA 2008-10-16 18:00:00 TS -5.55000 68.9500 25 1002 reunion main 1780 1796 O____O________ jtwc_sh SH012009 -5.60000 69.0000 TS 35 996 0 1006 220 30 -5.50000 68.9000 2 25 1002 2.00000 2.00000 9 3 230
2008290S05071 2009 81 SI MM ASMA 2008-10-16 21:00:00 TS -5.72374 68.8563 main 1805 1805 P____P________ SH012009 -5.72749 68.8775 TS 35 995 0 1006 220 35 -5.71999 68.8350 2 25 1001 4 200
2008290S05071 2009 81 SI MM ASMA 2008-10-17 00:00:00 TS -5.95000 68.8000 25 1001 reunion main 1830 1830 O____O________ jtwc_sh SH012009 -5.90000 68.8000 TS 35 994 0 1006 220 40 -6.00000 68.8000 2 25 1001 2.00000 2.00000 9 4 196
2008290S05071 2009 81 SI MM ASMA 2008-10-17 03:00:00 TS -6.12500 68.7462 main 1855 1855 P____P________ SH012009 -6.09250 68.7425 TS 35 995 0 1006 220 40 -6.15750 68.7500 2 25 1001 4 195
2008290S05071 2009 81 SI MM ASMA 2008-10-17 06:00:00 TS -6.30000 68.7000 25 1001 reunion main 1874 1874 O____O________ jtwc_sh SH012009 -6.30000 68.7000 TS 35 996 0 1006 220 40 -6.30000 68.7000 2 25 1001 2.00000 2.00000 9 4 197
2008290S05071 2009 81 SI MM ASMA 2008-10-17 09:00:00 TS -6.48875 68.6388 main 1899 1899 P____P________ SH012009 -6.50000 68.6425 TS 35 996 0 1005 215 37 -6.47750 68.6350 2 25 1000 4 193
2008290S05071 2009 81 SI MM ASMA 2008-10-17 12:00:00 TS -6.70000 68.6000 25 1000 reunion main 1906 1888 O____O________ jtwc_sh SH012009 -6.70000 68.6000 TS 35 996 0 1005 210 35 -6.70000 68.6000 2 25 1000 2.00000 2.00000 9 4 0
2008290S05071 2009 81 SI MM ASMA 2008-10-17 15:00:00 TS -6.93125 68.6287 main 1888 1868 P____P________ SH012009 -6.88500 68.6075 TS 32 998 -1 1005 210 37 -6.97751 68.6499 2 25 1000 5 173
2008290S05071 2009 81 SI MM ASMA 2008-10-17 18:00:00 TS -7.20000 68.6500 25 1000 reunion main 1868 1835 O____O________ jtwc_sh SH012009 -7.10000 68.6000 TD 30 1000 -1 1005 210 40 -7.30000 68.7000 2 25 1000 2.00000 2.00000 9 6 182
2008290S05071 2009 81 SI MM ASMA 2008-10-17 21:00:00 TS -7.53624 68.6087 main 1835 1802 P____P________ SH012009 -7.39250 68.5225 TD 30 1000 -1 1005 210 40 -7.67997 68.6950 2 25 1000 7 193
2008290S05071 2009 81 SI MM ASMA 2008-10-18 00:00:00 TS -7.85000 68.5000 25 1001 reunion main 1802 1771 O____O________ jtwc_sh SH012009 -7.70000 68.4000 TD 30 1000 -1 1005 210 40 -8.00000 68.6000 2 25 1001 2.00000 2.00000 9 6 208
2008290S05071 2009 81 SI MM ASMA 2008-10-18 03:00:00 TS -8.04374 68.3337 main 1771 1740 P____P________ SH012009 -7.94997 68.2799 TD 30 1000 -1 1005 230 40 -8.13751 68.3875 2 26 1000 5 228
2008290S05071 2009 81 SI MM ASMA 2008-10-18 06:00:00 TS -8.20000 68.1000 27 1000 reunion main 1740 1701 O____O________ jtwc_sh SH012009 -8.20000 68.1000 TD 30 1000 -1 1005 250 40 -8.20000 68.1000 2 27 1000 2.00000 2.00000 9 6 236
2008290S05071 2009 81 SI MM ASMA 2008-10-18 09:00:00 TS -8.38875 67.8187 main 1701 1663 P____P________ SH012009 -8.50000 67.8300 TD 30 1000 -1 1005 250 40 -8.27749 67.8074 2 27 1000 7 236
2008290S05071 2009 81 SI MM ASMA 2008-10-18 12:00:00 TS -8.60000 67.5000 27 1000 reunion main 1663 1625 O____O________ jtwc_sh SH012009 -8.80000 67.5000 TD 30 1000 -1 1005 250 40 -8.40000 67.5000 2 27 1000 2.00000 2.00000 9 8 235
2008290S05071 2009 81 SI MM ASMA 2008-10-18 15:00:00 TS -8.82744 67.1936 main 1625 1579 P____P________ SH012009 -9.04994 67.1724 TD 30 1000 -1 1005 250 45 -8.60494 67.2149 2 26 1000 8 232
2008290S05071 2009 81 SI MM ASMA 2008-10-18 18:00:00 TS -9.10000 66.8500 25 1001 reunion main 1579 1525 O____O________ jtwc_sh SH012009 -9.30000 66.8000 TD 30 1000 -1 1005 250 50 -8.90000 66.9000 2 25 1001 2.00000 2.00000 9 10 230
2008290S05071 2009 81 SI MM ASMA 2008-10-18 21:00:00 TS -9.44247 66.4475 main 1519 1456 P____P________ SH012009 -9.59250 66.3650 TD 32 998 -1 1005 250 50 -9.29245 66.5300 2 25 1001 11 230
2008290S05071 2009 81 SI MM ASMA 2008-10-19 00:00:00 TS -9.80000 66.0000 25 1001 reunion main 1456 1403 O____O________ jtwc_sh SH012009 -9.90000 65.9000 TS 35 996 0 1005 250 50 -9.70000 66.1000 2 25 1001 2.00000 2.00000 9 11 234
2008290S05071 2009 81 SI MM ASMA 2008-10-19 03:00:00 TS -10.1112 65.5287 main 1397 1344 P____P________ SH012009 -10.1999 65.4499 TS 35 996 0 1005 265 47 -10.0225 65.6074 2 26 1000 11 237
2008290S05071 2009 81 SI MM ASMA 2008-10-19 06:00:00 TS -10.4000 65.0500 27 1000 reunion main 1344 1285 O____O________ jtwc_sh SH012009 -10.5000 65.0000 TS 35 996 0 1006 280 45 -10.3000 65.1000 2 27 1000 2.00000 2.00000 9 11 239
2008290S05071 2009 81 SI MM ASMA 2008-10-19 09:00:00 TS -10.6674 64.5998 main 1285 1242 P____P________ SH012009 -10.7999 64.5499 TS 35 996 0 1006 280 42 -10.5349 64.6497 2 28 999 10 238
2008290S05071 2009 81 SI MM ASMA 2008-10-19 12:00:00 TS -10.9500 64.1500 30 999 reunion main 1242 1175 O____O________ jtwc_sh SH012009 -11.1000 64.1000 TS 35 996 0 1006 280 40 -10.8000 64.2000 2 30 999 2.50000 2.50000 9 11 236
2008290S05071 2009 81 SI MM ASMA 2008-10-19 15:00:00 TS -11.3000 63.6601 main 1175 1118 P____P________ SH012009 -11.4075 63.6275 TS 37 994 0 1006 280 40 -11.1925 63.6926 2 32 997 12 233
2008290S05071 2009 81 SI MM ASMA 2008-10-19 18:00:00 TS -11.6500 63.2000 35 995 reunion main 1118 1057 O____O________ jtwc_sh SH012009 -11.7000 63.2000 TS 40 993 0 45 55 55 45 1006 280 40 -11.6000 63.2000 3 35 995 2.50000 2.50000 16 21 134 134 21 9 11 231
2008290S05071 2009 81 SI MM ASMA 2008-10-19 21:00:00 TS -11.9737 62.8162 main 1057 1021 P____P________ SH012009 -11.9799 62.8774 TS 42 991 0 47 57 57 47 1006 267 37 -11.9675 62.7551 3 38 992 16 23 142 147 23 9 231
2008290S05071 2009 81 SI MM ASMA 2008-10-20 00:00:00 TS -12.2000 62.5000 42 990 reunion main 1021 996 O____O________ jtwc_sh SH012009 -12.2000 62.6000 TS 45 989 0 50 60 60 50 1006 255 35 -12.2000 62.4000 3 42 990 3.00000 3.00000 17 26 151 161 26 9 7 242
2008290S05071 2009 81 SI MM ASMA 2008-10-20 03:00:00 TS -12.2850 62.2237 main 996 986 P____P________ SH012009 -12.3675 62.2850 TS 47 987 0 52 62 62 52 1006 252 27 -12.2024 62.1623 3 43 989 17 29 156 169 29 5 264
2008290S05071 2009 81 SI MM ASMA 2008-10-20 06:00:00 TS -12.2500 62.0000 45 988 reunion main 996 991 O____O________ jtwc_sh SH012009 -12.4000 62.0000 TS 50 985 0 55 65 65 55 1006 250 20 -12.1000 62.0000 3 45 988 3.00000 3.50000 18 32 161 178 32 9 4 293
2008290S05071 2009 81 SI MM ASMA 2008-10-20 09:00:00 TS -12.1212 61.8287 main 996 996 P____P________ SH012009 -12.1999 61.7998 TS 50 985 0 55 65 65 55 1006 245 20 -12.0424 61.8575 3 42 989 19 32 169 183 32 4 306
2008290S05071 2009 81 SI MM ASMA 2008-10-20 12:00:00 TS -12.0000 61.6500 40 991 reunion main 1002 988 O____O________ jtwc_sh SH012009 -12.0000 61.6000 TS 50 985 0 55 65 65 55 1006 240 20 -12.0000 61.7000 3 40 991 2.50000 3.00000 21 32 178 188 32 9 4 282
2008290S05071 2009 81 SI MM ASMA 2008-10-20 15:00:00 TS -12.0312 61.4126 main 988 966 P____P________ SH012009 -12.0775 61.3302 TS 47 987 0 47 60 67 57 1006 240 20 -11.9849 61.4950 3 37 993 32 16 183 183 16 5 259
2008290S05071 2009 81 SI MM ASMA 2008-10-20 18:00:00 TS -12.1000 61.1000 35 995 reunion main 966 950 O____O________ jtwc_sh SH012009 -12.2000 61.0000 TS 45 989 0 40 55 70 60 1006 240 20 -12.0000 61.2000 3 35 995 2.00000 2.50000 43 0 188 178 0 9 7 263
2008290S05071 2009 81 SI MM ASMA 2008-10-20 21:00:00 TS -12.1187 60.7050 main 950 937 P____P________ SH012009 -12.1725 60.6149 TS 40 992 0 40 55 70 60 1006 240 27 -12.0650 60.7951 3 33 996 51 0 201 169 0 8 270
2008290S05071 2009 81 SI MM ASMA 2008-10-21 00:00:00 TS -12.1000 60.2500 32 997 reunion main 937 923 O____O________ jtwc_sh SH012009 -12.1000 60.2000 TS 35 996 0 40 55 70 60 1006 240 35 -12.1000 60.3000 2 32 997 2.00000 2.50000 59 0 215 161 0 9 9 274
2008290S05071 2009 81 SI MM ASMA 2008-10-21 03:00:00 TS -12.0512 59.7825 main 923 922 P____P________ SH012009 -12.0649 59.8151 TS 35 996 0 40 55 70 60 1006 230 32 -12.0376 59.7500 2 31 998 69 0 226 161 0 9 279
2008290S05071 2009 81 SI MM ASMA 2008-10-21 06:00:00 TS -11.9500 59.3000 30 999 reunion main 933 928 O____O________ jtwc_sh SH012009 -12.0000 59.4000 TS 35 996 0 40 55 70 60 1006 220 30 -11.9000 59.2000 2 30 999 2.00000 2.50000 80 0 237 161 0 9 10 286
2008290S05071 2009 81 SI MM ASMA 2008-10-21 09:00:00 TS -11.7899 58.8325 main 936 933 P____P________ SH012009 -11.8649 58.9225 TS 32 998 -1 1006 220 30 -11.7148 58.7425 2 28 999 10 291
2008290S05071 2009 81 SI MM ASMA 2008-10-21 12:00:00 TS -11.6000 58.3500 27 1000 reunion main 933 887 O____O________ jtwc_sh SH012009 -11.7000 58.4000 TD 30 1000 -1 1006 220 30 -11.5000 58.3000 2 27 1000 1.50000 2.00000 9 10 291
2008290S05071 2009 81 SI MM ASMA 2008-10-21 15:00:00 TS -11.4136 57.8475 main 876 827 P____P________ SH012009 -11.5574 57.8651 TD 27 1002 -1 -11.2698 57.8299 2 26 1001 11 289
2008290S05071 2009 81 SI MM ASMA 2008-10-21 18:00:00 TS -11.2500 57.3000 25 1002 reunion main 829 769 O____O________ jtwc_sh SH012009 -11.4000 57.3000 TD 25 1004 -1 -11.1000 57.3000 2 25 1002 1.50000 2.00000 9 12 284
2008290S05071 2009 81 SI MM ASMA 2008-10-21 21:00:00 TS -11.1236 56.7012 main 769 707 P____P________ SH012009 -11.1697 56.7373 TD 25 1004 -1 -11.0775 56.6652 2 25 1002 12 279
2008290S05071 2009 81 SI MM ASMA 2008-10-22 00:00:00 TS -11.0500 56.0500 25 1003 reunion main 710 639 O____O________ jtwc_sh SH012009 -11.0000 56.1000 TD 25 1004 -1 -11.1000 56.0000 2 25 1003 1.50000 2.00000 9 13 274
2008290S05071 2009 81 SI MM ASMA 2008-10-22 03:00:00 TS -11.0423 55.3764 main 639 563 P____P________ SH012009 -11.0198 55.3527 TD 25 1004 -1 -11.0648 55.4000 2 24 1003 14 270
2008290S05071 2009 81 SI MM ASMA 2008-10-22 06:00:00 TS -11.0500 54.6500 23 1004 reunion main 568 489 O____O________ jtwc_sh SH012009 -11.1000 54.5000 TD 25 1004 -1 -11.0000 54.8000 2 23 1004 1.50000 2.00000 9 15 271
2008290S05071 2009 81 SI MM ASMA 2008-10-22 09:00:00 TS -11.0226 53.8426 main 479 414 P____P________ SH012009 -11.1379 53.5127 TD 25 1004 -1 -10.9073 54.1725 2 23 1004 16 274
2008290S05071 2009 81 SI MM ASMA 2008-10-22 12:00:00 TS -10.9500 53.0500 23 1004 reunion main 420 362 O____O________ jtwc_sh SH012009 -11.1000 52.6000 TD 25 1004 -1 1006 220 30 -10.8000 53.5000 2 23 1004 1.50000 2.00000 9 15 279
2008290S05071 2009 81 SI MM ASMA 2008-10-22 15:00:00 TS -10.7999 52.3512 main 362 311 P____P________ SH012009 -10.8996 51.9598 TD 25 1004 -1 1006 220 30 -10.7001 52.7425 2 21 1004 13 283
2008290S05071 2009 81 SI MM ASMA 2008-10-22 18:00:00 TS -10.6500 51.7500 20 1005 reunion main 317 273 O____O________ jtwc_sh SH012009 -10.7000 51.5000 TD 25 1004 -1 1006 220 30 -10.6000 52.0000 2 20 1005 1.50000 1.50000 9 11 282
2008290S05071 2009 81 SI MM ASMA 2008-10-22 21:00:00 TS -10.5623 51.2412 main 265 242 P____P________ SH012009 -10.6698 51.1202 TD 25 1004 -1 -10.4548 51.3623 2 20 1005 9 276
2008290S05071 2009 81 SI MM ASMA 2008-10-23 00:00:00 TS -10.5500 50.8000 20 1005 reunion main 242 206 O____O________ jtwc_sh SH012009 -10.7000 50.8000 TD 25 1004 -1 -10.4000 50.8000 2 20 1005 1.50000 1.50000 9 9 267
2008290S05071 2009 81 SI MM ASMA 2008-10-23 03:00:00 TS -10.6011 50.3750 main 206 174 P____P________ SH012009 -10.6548 50.4798 TD 25 1004 -1 -10.5474 50.2702 2 20 1005 9 257
2008290S05071 2009 81 SI MM ASMA 2008-10-23 06:00:00 TS -10.7500 49.9500 20 1006 reunion main 174 125 O____O________ jtwc_sh SH012009 -10.7000 50.1000 TD 25 1004 -1 -10.8000 49.8000 2 20 1006 1.50000 1.50000 9 10 245
2008290S05071 2009 81 SI MM ASMA 2008-10-23 09:00:00 TS -11.0100 49.4863 main 125 90 P____P________ SH012009 -10.9626 49.5652 TD 25 1004 -1 -11.0573 49.4074 2 20 1006 11 239
2008290S05071 2009 81 SI MM ASMA 2008-10-23 12:00:00 TS -11.3000 49.0000 20 1007 reunion main 92 84 O____O________ jtwc_sh SH012009 -11.3000 49.0000 TD 25 1004 -1 -11.3000 49.0000 6 20 1007 1.00000 1.50000 9 11 241
2008290S05071 2009 81 SI MM ASMA 2008-10-23 15:00:00 TS -11.5223 48.5336 main 101 94 P____P________ SH012009 -11.5645 48.5872 TD 25 1004 -1 -11.4800 48.4800 6 20 1007 11 248
2008290S05071 2009 81 SI MM ASMA 2008-10-23 18:00:00 TS -11.7000 48.0000 20 1008 reunion main 124 124 O____O________ jtwc_sh SH012009 -11.8000 48.1000 TD 25 1004 -1 -11.6000 47.9000 6 20 1008 9.90000 9 12 254
2008290S05071 2009 81 SI MM ASMA 2008-10-23 21:00:00 TS -11.8700 47.3265 main 176 176 P____P________ SH012009 -12.0674 47.3830 TD 25 1004 -1 -11.6726 47.2700 6 20 1008 14 260
2008290S05071 2009 81 SI MM ASMA 2008-10-24 00:00:00 TS -11.9500 46.6000 20 1008 reunion main 243 243 O____O________ jtwc_sh SH012009 -12.2000 46.5000 TD 25 1004 -1 1006 220 30 -11.7000 46.7000 6 20 1008 9.90000 9 14 270
2008290S05071 2009 81 SI MM ASMA 2008-10-24 03:00:00 TS -11.8688 45.9170 main 296 296 P____P________ SH012009 -12.0231 45.4541 TD 25 1004 -1 -11.7144 46.3800 6 1008 12 280
2008290S05071 2009 81 SI MM ASMA 2008-10-24 06:00:00 TS -11.7429 45.3571 1009 reunion main 351 351 O____O________ jtwc_sh SH012009 -11.8000 44.5000 TD 25 1004 -1 -11.7000 46.0000 6 1009 9.90000 9 11 279
2008290S05071 2009 81 SI MM ASMA 2008-10-24 09:00:00 TS -11.7031 44.8385 main 404 393 P____P________ SH012009 -11.7796 43.8907 TD 22 1005 -1 -11.6648 45.3125 6 1009 12 273
2008290S05071 2009 81 SI MM ASMA 2008-10-24 12:00:00 TS -11.6750 44.1750 1010 reunion main 393 310 O____O________ jtwc_sh SH012009 -11.9000 43.5000 DB 20 1007 -3 -11.6000 44.4000 6 1010 9.90000 9 15 278
2008290S05071 2009 81 SI MM ASMA 2008-10-24 15:00:00 TS -11.5084 43.3374 main 299 190 _____P________ SH012009 DB -3 -11.5084 43.3374 6 1010 20 278
2008290S05071 2009 81 SI MM ASMA 2008-10-24 18:00:00 TS -11.4000 42.2000 1011 reunion main 180 _____O________ -11.4000 42.2000 6 1011 9.90000 9 22 276

About IBTrACS Database

This database is a web-friendly format of International Best Track Archive for Climate Stewardship (IBTrACS), a global best track data archive curated by NOAA dating back to 1842.

Updated: 2021-12-03